createdAt,value
2023-01-11T00:00:17.351Z,50.7
2023-01-11T00:01:24.389Z,51
2023-01-11T00:02:31.473Z,52
2023-01-11T00:03:38.709Z,51.3
2023-01-11T00:04:45.398Z,50.4
2023-01-11T00:05:52.628Z,51.5
2023-01-11T00:06:59.708Z,47.5
2023-01-11T00:08:06.297Z,45
2023-01-11T00:09:13.252Z,40
2023-01-11T00:10:20.390Z,42.6
2023-01-11T00:11:27.062Z,43.2
2023-01-11T00:12:34.188Z,44.1
2023-01-11T00:13:41.309Z,37.7
2023-01-11T00:14:47.925Z,37.9
2023-01-11T00:15:54.690Z,37.7
2023-01-11T00:17:01.863Z,39.7
2023-01-11T00:18:08.683Z,43.9
2023-01-11T00:19:15.838Z,39.1
2023-01-11T00:20:22.951Z,44.5
2023-01-11T00:21:29.574Z,49.2
2023-01-11T00:22:36.252Z,48.4
2023-01-11T00:23:43.402Z,44
2023-01-11T00:24:50.704Z,45
2023-01-11T00:25:57.693Z,42.9
2023-01-11T00:27:09.740Z,41.1
2023-01-11T00:28:16.871Z,38.9
2023-01-11T00:29:24.098Z,39.3
2023-01-11T00:30:31.159Z,37.5
2023-01-11T00:31:38.387Z,41.2
2023-01-11T00:32:45.160Z,38
2023-01-11T00:33:52.153Z,42
2023-01-11T00:34:59.311Z,45.1
2023-01-11T00:36:06.416Z,45.5
2023-01-11T00:37:13.396Z,43.6
2023-01-11T00:38:20.558Z,43.8
2023-01-11T00:39:32.774Z,45.6
2023-01-11T00:40:39.957Z,41.7
2023-01-11T00:41:47.082Z,35
2023-01-11T00:42:59.409Z,37.9
2023-01-11T00:44:11.333Z,37.1
2023-01-11T00:45:23.572Z,39.5
2023-01-11T00:46:35.877Z,39.6
2023-01-11T00:47:47.668Z,38.8
2023-01-11T00:48:59.829Z,38
2023-01-11T00:50:07.031Z,40.1
2023-01-11T00:51:13.988Z,39.8
2023-01-11T00:52:21.151Z,41.1
2023-01-11T00:53:28.235Z,44.4
2023-01-11T00:54:35.043Z,41.2
2023-01-11T00:55:42.294Z,43.2
2023-01-11T00:56:49.272Z,43.4
2023-01-11T00:57:55.873Z,41.6
2023-01-11T00:59:03.016Z,40.4
2023-01-11T01:00:10.000Z,40.5
2023-01-11T01:01:17.402Z,38.2
2023-01-11T01:02:24.392Z,36.8
2023-01-11T01:03:31.475Z,36.2
2023-01-11T01:04:38.639Z,36.8
2023-01-11T01:05:45.782Z,39.9
2023-01-11T01:06:52.911Z,36.1
2023-01-11T01:07:59.786Z,33.9
2023-01-11T01:09:06.768Z,36.3
2023-01-11T01:10:13.712Z,34.8
2023-01-11T01:11:20.815Z,32.6
2023-01-11T01:12:28.015Z,35.9
2023-01-11T01:13:39.779Z,36.4
2023-01-11T01:14:51.993Z,36.4
2023-01-11T01:15:59.191Z,37.1
2023-01-11T01:17:06.263Z,38.6
2023-01-11T01:18:13.235Z,36.9
2023-01-11T01:19:20.443Z,36.9
2023-01-11T01:20:27.010Z,35.4
2023-01-11T01:21:33.731Z,37.6
2023-01-11T01:22:40.828Z,35.6
2023-01-11T01:23:47.963Z,38.6
2023-01-11T01:24:57.724Z,40.1
2023-01-11T01:26:04.864Z,37.1
2023-01-11T01:27:11.823Z,38.1
2023-01-11T01:28:19.008Z,37
2023-01-11T01:29:26.097Z,39.2
2023-01-11T01:30:33.267Z,34.8
2023-01-11T01:31:40.344Z,35.1
2023-01-11T01:32:47.543Z,33.1
2023-01-11T01:33:54.697Z,33.9
2023-01-11T01:35:01.675Z,34
2023-01-11T01:36:08.812Z,31.7
2023-01-11T01:37:15.956Z,33.3
2023-01-11T01:38:23.049Z,34.1
2023-01-11T01:39:30.197Z,32.5
2023-01-11T01:40:37.323Z,34.5
2023-01-11T01:41:44.067Z,34
2023-01-11T01:42:51.139Z,33.2
2023-01-11T01:43:58.319Z,32.3
2023-01-11T01:45:04.988Z,33
2023-01-11T01:46:20.122Z,33.3
2023-01-11T01:47:27.207Z,32.3
2023-01-11T01:48:39.519Z,34.7
2023-01-11T01:49:46.661Z,37.4
2023-01-11T01:50:53.751Z,34
2023-01-11T01:52:00.471Z,34.9
2023-01-11T01:53:07.520Z,37.1
2023-01-11T01:54:14.560Z,36.6
2023-01-11T01:55:21.664Z,33.3
2023-01-11T01:56:28.769Z,33.9
2023-01-11T01:57:35.950Z,36.4
2023-01-11T01:58:43.123Z,35.9
2023-01-11T01:59:50.227Z,39.6
2023-01-11T02:00:57.376Z,43.2
2023-01-11T02:02:04.582Z,54.8
2023-01-11T02:03:11.543Z,60.9
2023-01-11T02:04:21.679Z,61.8
2023-01-11T02:05:29.071Z,66.4
2023-01-11T02:06:36.058Z,72
2023-01-11T02:07:43.119Z,75.6
2023-01-11T02:08:50.271Z,75.9
2023-01-11T02:09:59.946Z,75.1
2023-01-11T02:11:15.091Z,70.3
2023-01-11T02:12:30.094Z,66
2023-01-11T02:13:37.027Z,60.8
2023-01-11T02:14:43.736Z,58.6
2023-01-11T02:15:50.802Z,58
2023-01-11T02:16:57.877Z,60.6
2023-01-11T02:18:04.943Z,55.8
2023-01-11T02:19:14.517Z,56.3
2023-01-11T02:20:24.234Z,58
2023-01-11T02:21:41.719Z,53.5
2023-01-11T02:22:56.921Z,52.5
2023-01-11T02:24:09.050Z,50.3
2023-01-11T02:25:26.356Z,51.2
2023-01-11T02:26:38.641Z,48.5
2023-01-11T02:27:56.043Z,51.2
2023-01-11T02:29:13.173Z,48.1
2023-01-11T02:30:30.497Z,49
2023-01-11T02:31:42.659Z,51.7
2023-01-11T02:32:57.496Z,46.1
2023-01-11T02:34:14.647Z,41.9
2023-01-11T02:35:24.378Z,45.8
2023-01-11T02:36:34.041Z,45.3
2023-01-11T02:37:40.823Z,43.3
2023-01-11T02:38:55.982Z,43.6
2023-01-11T02:40:05.619Z,45
2023-01-11T02:41:12.611Z,43.8
2023-01-11T02:42:22.391Z,42.8
2023-01-11T02:43:42.861Z,45.4
2023-01-11T02:45:05.321Z,45.5
2023-01-11T02:46:22.907Z,45.9
2023-01-11T02:47:35.181Z,47.5
2023-01-11T02:48:42.239Z,54.3
2023-01-11T02:49:57.701Z,51.4
2023-01-11T02:51:14.779Z,48.8
2023-01-11T02:52:21.916Z,48.7
2023-01-11T02:53:39.391Z,50
2023-01-11T02:54:48.910Z,55.6
2023-01-11T02:55:56.059Z,54.2
2023-01-11T02:57:03.247Z,60.4
2023-01-11T02:58:10.171Z,59.7
2023-01-11T02:59:16.823Z,57.6
2023-01-11T03:00:23.991Z,59
2023-01-11T03:01:31.273Z,58.9
2023-01-11T03:02:38.240Z,60
2023-01-11T03:03:45.419Z,59.2
2023-01-11T03:04:52.617Z,59.4
2023-01-11T03:05:59.659Z,56.4
2023-01-11T03:07:09.178Z,62.7
2023-01-11T03:08:26.603Z,57
2023-01-11T03:09:33.661Z,54.2
2023-01-11T03:10:45.507Z,54.2
2023-01-11T03:12:02.830Z,53.7
2023-01-11T03:13:19.972Z,55.5
2023-01-11T03:14:26.650Z,48.3
2023-01-11T03:15:44.087Z,47.3
2023-01-11T03:16:56.191Z,45.2
2023-01-11T03:18:08.475Z,52.3
2023-01-11T03:19:23.159Z,49.4
2023-01-11T03:20:37.872Z,53.5
2023-01-11T03:21:45.098Z,52.2
2023-01-11T03:22:59.858Z,56.8
2023-01-11T03:24:06.542Z,49.1
2023-01-11T03:25:21.776Z,49.2
2023-01-11T03:26:29.408Z,51.6
2023-01-11T03:27:38.563Z,51.4
2023-01-11T03:28:55.867Z,53.9
2023-01-11T03:30:08.157Z,53.1
2023-01-11T03:31:25.328Z,49
2023-01-11T03:32:37.539Z,50.8
2023-01-11T03:33:47.227Z,49.1
2023-01-11T03:34:59.482Z,52.4
2023-01-11T03:36:14.607Z,49.2
2023-01-11T03:37:29.871Z,50.5
2023-01-11T03:38:42.094Z,50.6
2023-01-11T03:39:49.275Z,48.9
2023-01-11T03:40:58.995Z,50.3
2023-01-11T03:42:06.098Z,50.4
2023-01-11T03:43:13.080Z,47.5
2023-01-11T03:44:20.181Z,49.3
2023-01-11T03:45:27.388Z,48.8
2023-01-11T03:46:34.581Z,49.7
2023-01-11T03:47:41.062Z,46.2
2023-01-11T03:48:47.959Z,47.3
2023-01-11T03:50:05.211Z,46.2
2023-01-11T03:51:12.689Z,47.3
2023-01-11T03:52:19.752Z,41.7
2023-01-11T03:53:26.909Z,43.3
2023-01-11T03:54:33.740Z,44.7
2023-01-11T03:55:40.678Z,48.7
2023-01-11T03:56:47.844Z,49.7
2023-01-11T03:58:02.609Z,48.5
2023-01-11T03:59:09.601Z,56.2
2023-01-11T04:00:16.755Z,49.3
2023-01-11T04:01:23.939Z,49
2023-01-11T04:02:31.119Z,47
2023-01-11T04:03:43.282Z,52.6
2023-01-11T04:04:50.019Z,51.2
2023-01-11T04:05:57.082Z,49.5
2023-01-11T04:07:04.598Z,47.7
2023-01-11T04:08:11.724Z,50.7
2023-01-11T04:09:18.898Z,47.1
2023-01-11T04:10:25.997Z,48.1
2023-01-11T04:11:32.663Z,48.6
2023-01-11T04:12:39.942Z,48.3
2023-01-11T04:13:47.052Z,53.4
2023-01-11T04:14:54.047Z,49.3
2023-01-11T04:16:00.763Z,48.1
2023-01-11T04:17:07.869Z,51.6
2023-01-11T04:18:14.883Z,47.5
2023-01-11T04:19:22.334Z,50.5
2023-01-11T04:20:29.206Z,48.4
2023-01-11T04:21:38.854Z,48
2023-01-11T04:22:46.006Z,49.4
2023-01-11T04:23:53.242Z,47.8
2023-01-11T04:25:00.330Z,47.7
2023-01-11T04:26:07.530Z,50.4
2023-01-11T04:27:14.551Z,46.3
2023-01-11T04:28:21.603Z,50.1
2023-01-11T04:29:28.782Z,47.8
2023-01-11T04:30:35.921Z,46.5
2023-01-11T04:31:42.521Z,51.1
2023-01-11T04:32:49.192Z,51.8
2023-01-11T04:33:56.490Z,50.2
2023-01-11T04:35:03.438Z,52
2023-01-11T04:36:10.402Z,52.1
2023-01-11T04:37:17.587Z,49.6
2023-01-11T04:38:24.338Z,51
2023-01-11T04:39:31.297Z,48.1
2023-01-11T04:40:38.438Z,48.8
2023-01-11T04:41:45.624Z,50
2023-01-11T04:42:57.821Z,46.7
2023-01-11T04:44:04.821Z,48.4
2023-01-11T04:45:11.931Z,50
2023-01-11T04:46:18.567Z,48.8
2023-01-11T04:47:25.742Z,47.4
2023-01-11T04:48:32.821Z,48.6
2023-01-11T04:49:42.561Z,47.9
2023-01-11T04:50:49.514Z,49.7
2023-01-11T04:51:56.311Z,47
2023-01-11T04:53:03.514Z,49.4
2023-01-11T04:54:10.438Z,50.1
2023-01-11T04:55:17.617Z,49.5
2023-01-11T04:56:24.218Z,51
2023-01-11T04:57:30.898Z,51.5
2023-01-11T04:58:38.373Z,51.7
2023-01-11T04:59:45.151Z,53.8
2023-01-11T05:00:51.876Z,55.3
2023-01-11T05:01:59.110Z,54
2023-01-11T05:03:06.077Z,54.6
2023-01-11T05:04:13.631Z,45
2023-01-11T05:05:20.388Z,45.5
2023-01-11T05:06:27.436Z,49
2023-01-11T05:07:34.676Z,50.2
2023-01-11T05:08:41.727Z,50.2
2023-01-11T05:09:48.391Z,47.9
2023-01-11T05:10:55.537Z,48.9
2023-01-11T05:12:02.678Z,50.2
2023-01-11T05:13:09.866Z,47.8
2023-01-11T05:14:16.963Z,51.9
2023-01-11T05:15:23.942Z,51.5
2023-01-11T05:16:30.661Z,50.9
2023-01-11T05:17:37.702Z,52.3
2023-01-11T05:18:44.814Z,51.1
2023-01-11T05:19:51.611Z,51.4
2023-01-11T05:20:58.661Z,54.8
2023-01-11T05:22:05.802Z,50.3
2023-01-11T05:23:12.755Z,54.4
2023-01-11T05:24:19.914Z,51.8
2023-01-11T05:25:27.169Z,51.2
2023-01-11T05:26:34.878Z,51.7
2023-01-11T05:27:41.440Z,53.8
2023-01-11T05:28:48.505Z,51.8
2023-01-11T05:29:55.171Z,52.8
2023-01-11T05:31:02.374Z,54.7
2023-01-11T05:32:09.598Z,52.2
2023-01-11T05:33:16.566Z,55.7
2023-01-11T05:34:23.515Z,53.8
2023-01-11T05:35:30.695Z,51.9
2023-01-11T05:36:37.338Z,52.4
2023-01-11T05:37:44.531Z,53.6
2023-01-11T05:38:51.648Z,49.5
2023-01-11T05:39:58.270Z,49.2
2023-01-11T05:41:05.393Z,47.2
2023-01-11T05:42:12.355Z,47.9
2023-01-11T05:43:19.099Z,47.3
2023-01-11T05:44:26.167Z,50.1
2023-01-11T05:45:38.391Z,50.2
2023-01-11T05:46:45.715Z,45.8
2023-01-11T05:47:52.627Z,47.8
2023-01-11T05:48:59.741Z,47.1
2023-01-11T05:50:06.993Z,49.3
2023-01-11T05:51:13.878Z,45.1
2023-01-11T05:52:21.147Z,47
2023-01-11T05:53:28.340Z,46.1
2023-01-11T05:54:35.261Z,46.3
2023-01-11T05:55:41.886Z,46.7
2023-01-11T05:56:56.655Z,49.3
2023-01-11T05:58:03.842Z,53.4
2023-01-11T05:59:10.762Z,46.8
2023-01-11T06:00:17.841Z,48.3
2023-01-11T06:01:24.984Z,48
2023-01-11T06:02:32.333Z,49.4
2023-01-11T06:03:39.263Z,49
2023-01-11T06:04:46.425Z,51.9
2023-01-11T06:05:53.517Z,53.2
2023-01-11T06:07:00.783Z,52.8
2023-01-11T06:08:07.512Z,54
2023-01-11T06:09:14.360Z,51.2
2023-01-11T06:10:21.379Z,54.4
2023-01-11T06:11:28.036Z,54.5
2023-01-11T06:12:35.150Z,54.7
2023-01-11T06:13:42.367Z,57
2023-01-11T06:14:49.536Z,55.5
2023-01-11T06:15:56.685Z,56.8
2023-01-11T06:17:09.009Z,61.9
2023-01-11T06:18:15.783Z,62.9
2023-01-11T06:19:22.405Z,62.9
2023-01-11T06:20:29.065Z,64.7
2023-01-11T06:21:36.307Z,63.9
2023-01-11T06:22:43.393Z,68.6
2023-01-11T06:23:50.820Z,68.7
2023-01-11T06:24:57.798Z,67.7
2023-01-11T06:26:04.914Z,69.3
2023-01-11T06:27:11.820Z,68.4
2023-01-11T06:28:18.889Z,71.1
2023-01-11T06:29:26.039Z,72.1
2023-01-11T06:30:32.692Z,72
2023-01-11T06:31:39.803Z,73.4
2023-01-11T06:32:47.008Z,72.5
2023-01-11T06:33:53.629Z,79.1
2023-01-11T06:35:00.803Z,77.3
2023-01-11T06:36:08.003Z,76.7
2023-01-11T06:37:15.056Z,74.7
2023-01-11T06:38:22.051Z,70.7
2023-01-11T06:39:29.247Z,72
2023-01-11T06:40:36.314Z,72.9
2023-01-11T06:41:43.532Z,68.5
2023-01-11T06:42:50.658Z,67.4
2023-01-11T06:43:57.866Z,64.5
2023-01-11T06:45:04.987Z,62.4
2023-01-11T06:46:12.617Z,61.3
2023-01-11T06:47:19.573Z,64.2
2023-01-11T06:48:26.702Z,59.8
2023-01-11T06:49:33.450Z,60.3
2023-01-11T06:50:40.517Z,62.6
2023-01-11T06:51:47.645Z,87.4
2023-01-11T06:52:54.853Z,93.6
2023-01-11T06:54:01.973Z,86
2023-01-11T06:55:09.177Z,76.9
2023-01-11T06:56:16.055Z,63.5
2023-01-11T06:57:23.165Z,66.5
2023-01-11T06:58:30.354Z,61.2
2023-01-11T06:59:37.505Z,62.2
2023-01-11T07:00:44.594Z,62.2
2023-01-11T07:01:51.653Z,70.3
2023-01-11T07:02:58.905Z,79.3
2023-01-11T07:04:06.056Z,89.8
2023-01-11T07:05:13.076Z,92.5
2023-01-11T07:06:20.204Z,97.8
2023-01-11T07:07:27.284Z,90.1
2023-01-11T07:08:34.449Z,66.2
2023-01-11T07:09:41.622Z,57.1
2023-01-11T07:10:48.276Z,56.6
2023-01-11T07:11:54.954Z,60
2023-01-11T07:13:02.010Z,56.2
2023-01-11T07:14:09.167Z,55.4
2023-01-11T07:15:16.304Z,55.7
2023-01-11T07:16:23.395Z,52.5
2023-01-11T07:17:29.979Z,54.3
2023-01-11T07:18:37.052Z,55.9
2023-01-11T07:19:44.261Z,56.3
2023-01-11T07:20:51.584Z,56.1
2023-01-11T07:21:58.467Z,56
2023-01-11T07:23:05.637Z,54
2023-01-11T07:24:12.657Z,55.3
2023-01-11T07:25:19.822Z,58.3
2023-01-11T07:26:26.996Z,55.4
2023-01-11T07:27:33.769Z,50.4
2023-01-11T07:28:40.674Z,52
2023-01-11T07:29:47.874Z,52
2023-01-11T07:30:59.505Z,51.9
2023-01-11T07:32:01.770Z,52.5
2023-01-11T07:33:08.959Z,48
2023-01-11T07:34:15.922Z,48.3
2023-01-11T07:35:23.008Z,51
2023-01-11T07:36:30.138Z,50.4
2023-01-11T07:37:37.205Z,49.5
2023-01-11T07:38:44.402Z,50.7
2023-01-11T07:39:51.560Z,47.5
2023-01-11T07:40:58.133Z,48.6
2023-01-11T07:42:04.855Z,47.1
2023-01-11T07:43:16.829Z,44.7
2023-01-11T07:44:23.477Z,48.4
2023-01-11T07:45:44.456Z,50
2023-01-11T07:46:37.913Z,49.8
2023-01-11T07:47:45.101Z,48.1
2023-01-11T07:48:55.069Z,51.1
2023-01-11T07:50:01.774Z,52.9
2023-01-11T07:51:08.841Z,51.1
2023-01-11T07:52:15.906Z,49.5
2023-01-11T07:53:23.034Z,48.5
2023-01-11T07:54:30.166Z,50
2023-01-11T07:55:36.985Z,51
2023-01-11T07:56:44.028Z,47.6
2023-01-11T07:57:51.110Z,47.1
2023-01-11T07:59:00.708Z,51.3
2023-01-11T08:00:07.346Z,46.9
2023-01-11T08:01:14.888Z,46.9
2023-01-11T08:02:21.570Z,51.4
2023-01-11T08:03:28.737Z,47.4
2023-01-11T08:04:35.759Z,47.2
2023-01-11T08:05:42.457Z,50.7
2023-01-11T08:06:52.219Z,46.4
2023-01-11T08:07:59.249Z,46.4
2023-01-11T08:09:06.434Z,48.8
2023-01-11T08:10:13.667Z,51.2
2023-01-11T08:11:20.724Z,49.3
2023-01-11T08:12:32.954Z,49.1
2023-01-11T08:13:45.057Z,46.1
2023-01-11T08:14:57.383Z,47.7
2023-01-11T08:16:04.575Z,51
2023-01-11T08:17:11.542Z,51.3
2023-01-11T08:18:18.812Z,54.6
2023-01-11T08:19:25.754Z,52.4
2023-01-11T08:20:32.934Z,49.8
2023-01-11T08:21:40.086Z,54.3
2023-01-11T08:22:47.156Z,53.3
2023-01-11T08:23:54.400Z,56.5
2023-01-11T08:25:01.514Z,53.2
2023-01-11T08:26:08.693Z,51.8
2023-01-11T08:27:15.635Z,56.5
2023-01-11T08:28:22.778Z,56.7
2023-01-11T08:29:29.877Z,55.7
2023-01-11T08:30:36.556Z,52
2023-01-11T08:31:43.701Z,52
2023-01-11T08:32:50.829Z,52
2023-01-11T08:33:57.793Z,49.6
2023-01-11T08:35:04.550Z,54.6
2023-01-11T08:36:11.573Z,51.9
2023-01-11T08:37:18.817Z,49.4
2023-01-11T08:38:25.770Z,46.8
2023-01-11T08:39:32.873Z,48.4
2023-01-11T08:40:40.048Z,44.7
2023-01-11T08:41:46.669Z,45.2
2023-01-11T08:42:53.588Z,47
2023-01-11T08:44:00.541Z,44.6
2023-01-11T08:45:07.226Z,41.9
2023-01-11T08:46:14.233Z,44.1
2023-01-11T08:47:21.289Z,42.6
2023-01-11T08:48:28.523Z,40.9
2023-01-11T08:49:35.675Z,46
2023-01-11T08:50:42.629Z,43.1
2023-01-11T08:51:49.378Z,42.8
2023-01-11T08:52:56.514Z,46.3
2023-01-11T08:54:03.654Z,47.2
2023-01-11T08:55:13.601Z,49.5
2023-01-11T08:56:20.878Z,41.7
2023-01-11T08:57:27.959Z,39.4
2023-01-11T08:58:35.025Z,41.3
2023-01-11T08:59:42.109Z,38.9
2023-01-11T09:00:49.337Z,39.5
2023-01-11T09:01:56.535Z,38.8
2023-01-11T09:03:03.334Z,37.2
2023-01-11T09:04:23.645Z,39.9
2023-01-11T09:05:18.332Z,39
2023-01-11T09:06:23.874Z,38.6
2023-01-11T09:07:31.035Z,42.2
2023-01-11T09:08:38.141Z,44.5
2023-01-11T09:09:45.081Z,47.5
2023-01-11T09:10:51.834Z,45.5
2023-01-11T09:12:01.648Z,45.1
2023-01-11T09:13:08.685Z,42.9
2023-01-11T09:14:15.788Z,45.5
2023-01-11T09:15:22.405Z,43.3
2023-01-11T09:16:29.663Z,40.5
2023-01-11T09:17:36.721Z,42.1
2023-01-11T09:18:43.873Z,44.3
2023-01-11T09:19:50.878Z,43.2
2023-01-11T09:20:57.622Z,38.9
2023-01-11T09:22:04.792Z,42.8
2023-01-11T09:23:11.789Z,45
2023-01-11T09:24:18.800Z,43.4
2023-01-11T09:25:25.991Z,42.7
2023-01-11T09:26:32.716Z,39.5
2023-01-11T09:27:39.889Z,40.2
2023-01-11T09:28:46.900Z,41.6
2023-01-11T09:29:54.056Z,38.6
2023-01-11T09:31:00.749Z,36.8
2023-01-11T09:32:07.963Z,35.6
2023-01-11T09:33:14.792Z,38
2023-01-11T09:34:21.593Z,39.8
2023-01-11T09:35:28.857Z,39
2023-01-11T09:36:35.740Z,41.2
2023-01-11T09:37:42.859Z,38.2
2023-01-11T09:38:52.562Z,41.1
2023-01-11T09:39:59.624Z,41.1
2023-01-11T09:41:06.753Z,38.4
2023-01-11T09:42:24.018Z,41.7
2023-01-11T09:43:34.198Z,36.3
2023-01-11T09:44:41.342Z,36.7
2023-01-11T09:45:51.521Z,39.2
2023-01-11T09:46:58.228Z,38.5
2023-01-11T09:48:12.911Z,35.6
2023-01-11T09:49:25.316Z,38.7
2023-01-11T09:50:32.212Z,35.9
2023-01-11T09:51:44.978Z,37.7
2023-01-11T09:52:52.087Z,35.2
2023-01-11T09:54:01.833Z,38.2
2023-01-11T09:55:08.991Z,42.6
2023-01-11T09:56:18.966Z,40.3
2023-01-11T09:57:28.589Z,37.2
2023-01-11T09:58:43.893Z,34.1
2023-01-11T09:59:53.596Z,38.1
2023-01-11T10:01:06.414Z,34.8
2023-01-11T10:02:23.557Z,34.5
2023-01-11T10:03:35.881Z,33
2023-01-11T10:04:48.033Z,33.7
2023-01-11T10:06:02.654Z,27.7
2023-01-11T10:07:19.880Z,32
2023-01-11T10:18:24.677Z,26.4
2023-01-11T10:18:34.507Z,24.7
2023-01-11T10:18:34.699Z,25.6
2023-01-11T10:18:34.964Z,26.5
2023-01-11T10:19:38.489Z,28.1
2023-01-11T10:20:36.869Z,25.2
2023-01-11T10:21:43.943Z,23.4
2023-01-11T10:22:56.751Z,22.9
2023-01-11T10:24:09.018Z,23.7
2023-01-11T10:25:24.059Z,25.6
2023-01-11T10:26:36.351Z,29.6
2023-01-11T10:27:43.463Z,26.6
2023-01-11T10:28:55.758Z,26.1
2023-01-11T10:30:12.928Z,21.8
2023-01-11T10:31:20.081Z,21.4
2023-01-11T10:32:29.739Z,22.3
2023-01-11T10:33:45.041Z,22.9
2023-01-11T10:34:52.210Z,22.7
2023-01-11T10:36:04.456Z,20.2
2023-01-11T10:37:19.458Z,21
2023-01-11T10:38:34.337Z,20.4
2023-01-11T10:39:49.118Z,21
2023-01-11T10:41:09.490Z,20.3
2023-01-11T10:42:19.129Z,24.2
2023-01-11T10:43:26.271Z,20.3
2023-01-11T10:44:33.339Z,24.1
2023-01-11T10:45:45.682Z,23.7
2023-01-11T10:46:55.318Z,21.8
2023-01-11T10:48:02.480Z,21.7
2023-01-11T10:49:09.492Z,19.2
2023-01-11T10:50:26.725Z,22.2
2023-01-11T10:51:36.406Z,21
2023-01-11T10:52:43.582Z,21.3
2023-01-11T10:53:53.272Z,21.4
2023-01-11T10:55:10.603Z,22.4
2023-01-11T10:56:17.612Z,21
2023-01-11T10:57:27.240Z,20
2023-01-11T10:58:39.526Z,19.2
2023-01-11T10:59:49.115Z,20.1
2023-01-11T11:01:06.657Z,17.4
2023-01-11T11:02:22.690Z,15.1
2023-01-11T11:03:34.015Z,16.1
2023-01-11T11:04:46.264Z,16.7
2023-01-11T11:05:58.513Z,15.7
2023-01-11T11:07:05.678Z,16.7
2023-01-11T11:08:13.865Z,15.5
2023-01-11T11:09:19.726Z,15.8
2023-01-11T11:10:26.897Z,13.1
2023-01-11T11:11:39.195Z,14.2
2023-01-11T11:12:45.797Z,15
2023-01-11T11:13:58.062Z,14.3
2023-01-11T11:15:05.171Z,17.7
2023-01-11T11:16:12.296Z,20.5
2023-01-11T11:17:26.998Z,14.5
2023-01-11T11:18:34.114Z,14.4
2023-01-11T11:19:41.963Z,14.5
2023-01-11T11:20:47.934Z,17.6
2023-01-11T11:21:55.153Z,14.9
2023-01-11T11:23:01.800Z,15.6
2023-01-11T11:24:08.893Z,16.4
2023-01-11T11:25:26.039Z,15.4
2023-01-11T11:26:35.746Z,14.6
2023-01-11T11:27:42.367Z,15.2
2023-01-11T11:28:55.663Z,13.8
2023-01-11T11:30:03.000Z,15.1
2023-01-11T11:31:10.491Z,12
2023-01-11T11:32:17.353Z,14.6
2023-01-11T11:33:32.138Z,12.4
2023-01-11T11:34:39.423Z,12.4
2023-01-11T11:35:52.481Z,11.5
2023-01-11T11:37:02.221Z,11.3
2023-01-11T11:38:09.417Z,9.5
2023-01-11T11:39:24.085Z,10.5
2023-01-11T11:40:31.202Z,8.4
2023-01-11T11:41:38.421Z,8.4
2023-01-11T11:42:48.093Z,9.5
2023-01-11T11:43:55.184Z,10.3
2023-01-11T11:45:05.036Z,9.1
2023-01-11T11:46:13.307Z,9.1
2023-01-11T11:47:19.123Z,7.4
2023-01-11T11:48:26.185Z,7.5
2023-01-11T11:49:32.821Z,7.9
2023-01-11T11:50:45.314Z,7.7
2023-01-11T11:51:47.140Z,7.8
2023-01-11T11:52:54.331Z,8
2023-01-11T11:54:03.957Z,8.5
2023-01-11T11:55:10.981Z,9.9
2023-01-11T11:56:18.081Z,8.7
2023-01-11T11:57:32.840Z,8.8
2023-01-11T11:58:39.965Z,9.6
2023-01-11T11:59:47.081Z,9.1
2023-01-11T12:00:54.244Z,10.8
2023-01-11T12:02:01.423Z,11.3
2023-01-11T12:03:08.563Z,12.9
2023-01-11T12:04:18.057Z,12.5
2023-01-11T12:05:27.818Z,12.5
2023-01-11T12:06:34.855Z,11.3
2023-01-11T12:07:53.810Z,11
2023-01-11T12:08:48.628Z,11.2
2023-01-11T12:09:55.738Z,10.3
2023-01-11T12:11:02.943Z,10.3
2023-01-11T12:12:10.033Z,9.5
2023-01-11T12:13:22.738Z,9.8
2023-01-11T12:14:29.934Z,11.2
2023-01-11T12:15:36.949Z,12.2
2023-01-11T12:16:44.245Z,11.1
2023-01-11T12:17:51.244Z,10.6
2023-01-11T12:18:58.322Z,8.4
2023-01-11T12:20:05.129Z,10.6
2023-01-11T12:21:22.770Z,9.2
2023-01-11T12:22:29.825Z,10.2
2023-01-11T12:23:36.468Z,9.9
2023-01-11T12:24:43.699Z,9.5
2023-01-11T12:25:50.773Z,10.3
2023-01-11T12:27:03.021Z,11.4
2023-01-11T12:28:18.133Z,13
2023-01-11T12:29:27.827Z,12.5
2023-01-11T12:30:37.536Z,15.6
2023-01-11T12:31:49.775Z,15.6
2023-01-11T12:33:01.974Z,13.2
2023-01-11T12:34:19.260Z,11.7
2023-01-11T12:35:36.612Z,10.8
2023-01-11T12:36:53.897Z,10.6
2023-01-11T12:38:06.164Z,12.2
2023-01-11T12:39:23.371Z,9.7
2023-01-11T12:40:33.042Z,10.3
2023-01-11T12:41:45.309Z,9.4
2023-01-11T12:42:57.415Z,9.4
2023-01-11T12:44:09.700Z,10.9
2023-01-11T12:45:21.977Z,10.4
2023-01-11T12:46:34.030Z,9.5
2023-01-11T12:47:46.301Z,9.3
2023-01-11T12:49:03.644Z,10.9
2023-01-11T12:50:16.775Z,9.4
2023-01-11T12:51:24.044Z,8.8
2023-01-11T12:52:41.262Z,11.7
2023-01-11T12:53:53.482Z,11.4
2023-01-11T12:55:08.816Z,14.7
2023-01-11T12:56:20.917Z,15.8
2023-01-11T12:57:30.583Z,11.5
2023-01-11T12:58:45.332Z,11
2023-01-11T12:59:55.155Z,13.8
2023-01-11T13:01:07.340Z,13
2023-01-11T13:02:22.432Z,13.3
2023-01-11T13:03:39.775Z,13
2023-01-11T13:04:51.998Z,13.2
2023-01-11T13:06:04.756Z,14
2023-01-11T13:07:14.291Z,13.9
2023-01-11T13:08:29.055Z,14.2
2023-01-11T13:09:46.363Z,15.6
2023-01-11T13:11:03.726Z,14.1
2023-01-11T13:12:21.012Z,13.4
2023-01-11T13:13:33.090Z,15.5
2023-01-11T13:14:48.084Z,16.5
2023-01-11T13:15:55.071Z,15.3
2023-01-11T13:17:02.239Z,14.8
2023-01-11T13:18:19.393Z,15
2023-01-11T13:19:26.534Z,16.4
2023-01-11T13:20:53.690Z,17.6
2023-01-11T13:21:51.989Z,16.8
2023-01-11T13:22:59.053Z,17.5
2023-01-11T13:24:11.356Z,18.6
2023-01-11T13:25:18.423Z,15.6
2023-01-11T13:26:28.115Z,17.2
2023-01-11T13:27:35.291Z,15.2
2023-01-11T13:28:42.300Z,19.2
2023-01-11T13:29:49.071Z,17.7
2023-01-11T13:30:58.759Z,19.2
2023-01-11T13:32:05.788Z,15.4
2023-01-11T13:33:18.012Z,14.2
2023-01-11T13:34:25.133Z,12.7
2023-01-11T13:35:37.331Z,13
2023-01-11T13:36:43.967Z,14.7
2023-01-11T13:37:50.630Z,13.2
2023-01-11T13:39:00.295Z,12.9
2023-01-11T13:40:12.373Z,14.6
2023-01-11T13:41:22.056Z,13.3
2023-01-11T13:42:29.244Z,11.4
2023-01-11T13:43:41.921Z,12.4
2023-01-11T13:44:56.722Z,14.2
2023-01-11T13:46:07.015Z,12.8
2023-01-11T13:47:16.467Z,9.9
2023-01-11T13:48:33.847Z,11.9
2023-01-11T13:49:40.644Z,12.5
2023-01-11T13:50:55.819Z,12.9
2023-01-11T13:52:02.852Z,11.6
2023-01-11T13:53:17.560Z,10.8
2023-01-11T13:54:32.649Z,13.2
2023-01-11T13:55:44.569Z,13.2
2023-01-11T13:57:01.872Z,12.4
2023-01-11T13:58:08.972Z,11.8
2023-01-11T13:59:18.644Z,12
2023-01-11T14:00:30.877Z,11.7
2023-01-11T14:01:46.301Z,12.5
2023-01-11T14:02:56.271Z,11.8
2023-01-11T14:04:05.968Z,12.1
2023-01-11T14:05:20.678Z,12.2
2023-01-11T14:06:27.335Z,10.8
2023-01-11T14:07:44.589Z,13
2023-01-11T14:09:01.955Z,11.8
2023-01-11T14:10:17.246Z,13.3
2023-01-11T14:11:29.451Z,15.6
2023-01-11T14:12:39.031Z,15.7
2023-01-11T14:13:51.431Z,16.2
2023-01-11T14:15:11.629Z,17.5
2023-01-11T14:16:26.811Z,19
2023-01-11T14:17:44.287Z,15.3
2023-01-11T14:19:02.052Z,16.9
2023-01-11T14:20:11.341Z,19.2
2023-01-11T14:21:23.865Z,18.3
2023-01-11T14:22:36.100Z,18.6
2023-01-11T14:23:53.455Z,16
2023-01-11T14:25:00.459Z,17
2023-01-11T14:26:15.136Z,16.8
2023-01-11T14:27:32.452Z,15.7
2023-01-11T14:28:49.924Z,17
2023-01-11T14:30:05.035Z,19
2023-01-11T14:31:17.417Z,17.7
2023-01-11T14:32:34.531Z,16.3
2023-01-11T14:33:46.783Z,16.9
2023-01-11T14:34:59.044Z,16.8
2023-01-11T14:36:14.184Z,17.7
2023-01-11T14:37:29.512Z,17.3
2023-01-11T14:38:41.703Z,20.4
2023-01-11T14:39:54.087Z,18.1
2023-01-11T14:41:06.132Z,20
2023-01-11T14:42:30.724Z,22.4
2023-01-11T14:43:33.624Z,18.7
2023-01-11T14:44:51.016Z,18.7
2023-01-11T14:46:03.264Z,19.3
2023-01-11T14:47:13.245Z,22.9
2023-01-11T14:48:28.042Z,22.4
2023-01-11T14:49:35.103Z,21.2
2023-01-11T14:50:52.579Z,22.7
2023-01-11T14:52:07.736Z,20.6
2023-01-11T14:53:17.835Z,20.2
2023-01-11T14:54:24.522Z,23.4
2023-01-11T14:55:37.157Z,23.1
2023-01-11T14:56:43.812Z,19.9
2023-01-11T14:57:56.113Z,21.4
2023-01-11T14:59:03.147Z,22.7
2023-01-11T15:00:10.405Z,22.4
2023-01-11T15:01:22.518Z,20.8
2023-01-11T15:02:29.326Z,22.3
2023-01-11T15:03:36.277Z,29.5
2023-01-11T15:04:46.033Z,25.8
2023-01-11T15:05:56.110Z,27.5
2023-01-11T15:07:05.786Z,27.6
2023-01-11T15:08:20.521Z,25.8
2023-01-11T15:09:27.494Z,28.8
2023-01-11T15:10:44.969Z,28.1
2023-01-11T15:12:02.242Z,32
2023-01-11T15:13:14.394Z,29.4
2023-01-11T15:14:29.118Z,27.6
2023-01-11T15:15:35.840Z,30
2023-01-11T15:16:48.041Z,30.8
2023-01-11T15:18:00.469Z,30.4
2023-01-11T15:19:12.419Z,29.6
2023-01-11T15:20:29.732Z,28.6
2023-01-11T15:21:36.797Z,27.5
2023-01-11T15:22:44.075Z,29.4
2023-01-11T15:23:51.379Z,30
2023-01-11T15:24:58.332Z,29.4
2023-01-11T15:26:05.428Z,29.1
2023-01-11T15:27:12.494Z,28.4
2023-01-11T15:28:24.674Z,31.5
2023-01-11T15:29:40.052Z,27.6
2023-01-11T15:30:50.127Z,28.7
2023-01-11T15:32:02.482Z,28.7
2023-01-11T15:33:14.733Z,27.5
2023-01-11T15:34:21.617Z,27.9